createdAt,value
2023-02-05T00:01:15.872Z,8.90
2023-02-05T00:06:18.128Z,8.75
2023-02-05T00:11:23.081Z,9.80
2023-02-05T00:16:26.772Z,7.80
2023-02-05T00:21:28.962Z,7.10
2023-02-05T00:26:31.241Z,8.63
2023-02-05T00:31:37.442Z,8.20
2023-02-05T00:36:39.731Z,10.70
2023-02-05T00:41:42.022Z,9.45
2023-02-05T00:46:45.556Z,8.60
2023-02-05T00:51:47.754Z,7.18
2023-02-05T00:56:49.933Z,8.38
2023-02-05T01:01:53.581Z,7.20
2023-02-05T01:06:55.733Z,12.55
2023-02-05T01:11:59.101Z,8.00
2023-02-05T01:17:04.071Z,7.70
2023-02-05T01:22:07.016Z,6.07
2023-02-05T01:27:11.584Z,8.20
2023-02-05T01:32:15.183Z,8.02
2023-02-05T01:37:17.409Z,8.00
2023-02-05T01:42:22.989Z,10.80
2023-02-05T01:47:26.544Z,10.18
2023-02-05T01:52:28.762Z,8.15
2023-02-05T01:57:32.065Z,10.35
2023-02-05T02:02:37.438Z,7.88
2023-02-05T02:07:40.379Z,10.07
2023-02-05T02:12:45.676Z,7.25
2023-02-05T02:17:53.359Z,8.07
2023-02-05T02:23:10.976Z,7.97
2023-02-05T02:28:21.163Z,9.55
2023-02-05T02:33:28.863Z,11.55
2023-02-05T02:38:33.850Z,7.63
2023-02-05T02:43:44.875Z,11.02
2023-02-05T02:48:50.477Z,9.05
2023-02-05T02:53:57.696Z,8.63
2023-02-05T02:59:03.978Z,9.80
2023-02-05T03:04:11.738Z,10.30
2023-02-05T03:09:22.558Z,9.82
2023-02-05T03:14:26.216Z,9.30
2023-02-05T03:19:29.815Z,8.45
2023-02-05T03:24:32.236Z,8.52
2023-02-05T03:29:38.124Z,9.63
2023-02-05T03:34:57.718Z,10.18
2023-02-05T03:40:06.725Z,8.75
2023-02-05T03:45:28.742Z,9.20
2023-02-05T03:50:37.322Z,10.32
2023-02-05T03:55:45.200Z,8.45
2023-02-05T04:00:48.846Z,10.10
2023-02-05T04:05:51.004Z,12.68
2023-02-05T04:10:53.228Z,10.43
2023-02-05T04:15:56.972Z,12.75
2023-02-05T04:20:59.075Z,12.27
2023-02-05T04:26:01.134Z,12.90
2023-02-05T04:31:08.049Z,11.70
2023-02-05T04:36:10.539Z,10.68
2023-02-05T04:41:12.600Z,11.25
2023-02-05T04:46:16.188Z,10.07
2023-02-05T04:51:18.403Z,11.52
2023-02-05T04:56:20.579Z,10.45
2023-02-05T05:01:24.296Z,10.35
2023-02-05T05:06:26.478Z,12.27
2023-02-05T05:11:28.620Z,10.18
2023-02-05T05:16:32.143Z,11.77
2023-02-05T05:21:34.310Z,9.57
2023-02-05T05:26:36.416Z,12.68
2023-02-05T05:31:40.427Z,14.10
2023-02-05T05:36:42.548Z,11.73
2023-02-05T05:41:44.607Z,10.60
2023-02-05T05:46:48.117Z,10.60
2023-02-05T05:51:50.171Z,11.80
2023-02-05T05:56:52.438Z,12.85
2023-02-05T06:01:56.027Z,12.25
2023-02-05T06:06:58.232Z,10.05
2023-02-05T06:12:00.333Z,11.65
2023-02-05T06:17:03.868Z,12.90
2023-02-05T06:22:06.037Z,16.80
2023-02-05T06:27:08.174Z,27.95
2023-02-05T06:32:11.850Z,14.75
2023-02-05T06:37:14.065Z,16.02
2023-02-05T06:42:16.179Z,19.05
2023-02-05T06:47:19.725Z,18.40
2023-02-05T06:52:22.056Z,13.65
2023-02-05T06:57:24.244Z,17.35
2023-02-05T07:02:28.079Z,16.65
2023-02-05T07:07:30.199Z,16.48
2023-02-05T07:12:32.627Z,12.85
2023-02-05T07:17:36.321Z,15.02
2023-02-05T07:22:38.443Z,13.70
2023-02-05T07:27:40.623Z,17.50
2023-02-05T07:32:44.208Z,14.32
2023-02-05T07:37:46.743Z,17.13
2023-02-05T07:42:48.844Z,17.98
2023-02-05T07:47:52.377Z,15.40
2023-02-05T07:52:54.456Z,17.48
2023-02-05T07:57:56.600Z,20.45
2023-02-05T08:03:00.108Z,16.77
2023-02-05T08:08:05.465Z,17.83
2023-02-05T08:13:07.611Z,16.33
2023-02-05T08:18:11.205Z,17.20
2023-02-05T08:23:16.363Z,18.17
2023-02-05T08:28:18.580Z,17.45
2023-02-05T08:33:22.308Z,19.77
2023-02-05T08:38:24.462Z,17.45
2023-02-05T08:43:26.592Z,16.92
2023-02-05T08:48:30.139Z,16.80
2023-02-05T08:53:32.837Z,17.73
2023-02-05T08:58:34.994Z,17.20
2023-02-05T09:03:38.702Z,17.02
2023-02-05T09:08:41.099Z,15.20
2023-02-05T09:13:43.308Z,21.48
2023-02-05T09:18:46.858Z,19.20
2023-02-05T09:24:23.346Z,23.30
2023-02-05T09:36:09.018Z,16.27
2023-02-05T09:41:42.811Z,18.17
2023-02-05T09:47:16.037Z,19.50
2023-02-05T09:52:44.677Z,17.98
2023-02-05T09:57:50.974Z,13.65
2023-02-05T10:03:10.531Z,14.73
2023-02-05T10:08:36.300Z,16.58
2023-02-05T10:13:49.813Z,10.75
2023-02-05T10:19:24.937Z,8.25
2023-02-05T10:24:59.692Z,11.32
2023-02-05T10:30:18.080Z,9.15
2023-02-05T10:35:33.901Z,16.02
2023-02-05T10:40:49.696Z,15.70
2023-02-05T10:45:55.655Z,15.20
2023-02-05T10:51:15.595Z,12.25
2023-02-05T10:56:38.748Z,12.93
2023-02-05T11:02:24.188Z,8.00
2023-02-05T11:07:29.358Z,8.38
2023-02-05T11:12:48.000Z,13.27
2023-02-05T11:18:09.673Z,13.45
2023-02-05T11:23:29.496Z,15.05
2023-02-05T11:29:35.555Z,18.20
2023-02-05T11:34:52.377Z,18.52
2023-02-05T11:40:22.838Z,15.95
2023-02-05T11:45:32.364Z,22.30
2023-02-05T11:55:47.999Z,20.92
2023-02-05T12:01:01.828Z,20.95
2023-02-05T12:06:21.555Z,17.20
2023-02-05T12:11:50.292Z,21.75
2023-02-05T12:17:16.544Z,24.35
2023-02-05T12:22:42.936Z,18.33
2023-02-05T12:28:16.287Z,25.48
2023-02-05T12:33:49.628Z,29.08
2023-02-05T12:39:09.473Z,18.45
2023-02-05T12:44:32.170Z,22.13
2023-02-05T12:49:53.053Z,25.92
2023-02-05T12:55:09.354Z,18.75
2023-02-05T13:00:17.857Z,26.53
2023-02-05T13:05:38.198Z,26.27
2023-02-05T13:10:59.196Z,18.95
2023-02-05T13:16:17.381Z,21.17
2023-02-05T13:21:32.066Z,18.23
2023-02-05T13:26:47.637Z,16.58
2023-02-05T13:31:57.094Z,21.50
2023-02-05T13:37:42.963Z,16.65
2023-02-05T13:43:17.215Z,16.75
2023-02-05T13:48:48.900Z,17.13
2023-02-05T13:54:50.005Z,16.75
2023-02-05T13:59:59.959Z,18.58
2023-02-05T14:05:07.283Z,16.13
2023-02-05T14:10:28.871Z,14.18
2023-02-05T14:15:42.983Z,14.00
2023-02-05T14:20:49.204Z,16.52
2023-02-05T14:26:11.809Z,19.67
2023-02-05T14:31:57.577Z,20.42
2023-02-05T14:37:04.493Z,14.77
2023-02-05T14:42:22.651Z,14.32
2023-02-05T14:47:30.834Z,20.63
2023-02-05T14:52:39.457Z,25.30
2023-02-05T14:57:49.736Z,21.13
2023-02-05T15:03:07.614Z,18.02
2023-02-05T15:08:16.551Z,18.13
2023-02-05T15:13:22.054Z,28.58
2023-02-05T15:18:30.609Z,22.95
2023-02-05T15:23:43.881Z,16.83
2023-02-05T15:29:03.838Z,18.15
2023-02-05T15:34:29.760Z,23.77
2023-02-05T15:39:41.605Z,17.60
2023-02-05T15:44:44.750Z,21.17
2023-02-05T15:49:50.642Z,22.52
2023-02-05T15:55:12.069Z,17.55
2023-02-05T16:00:22.398Z,17.25
2023-02-05T16:05:34.283Z,20.40
2023-02-05T16:10:40.491Z,25.38
2023-02-05T16:15:51.101Z,17.10
2023-02-05T16:20:58.129Z,19.00
2023-02-05T16:26:06.283Z,20.35
2023-02-05T16:31:15.887Z,23.70
2023-02-05T16:36:22.701Z,28.73
2023-02-05T16:41:30.393Z,26.05
2023-02-05T16:46:34.986Z,21.98
2023-02-05T16:51:54.648Z,27.90
2023-02-05T16:57:12.109Z,19.77
2023-02-05T17:02:32.027Z,20.15
2023-02-05T17:17:59.423Z,19.35
2023-02-05T17:23:15.856Z,24.00
2023-02-05T17:28:28.422Z,22.07
2023-02-05T17:33:39.020Z,24.20
2023-02-05T17:38:42.417Z,25.35
2023-02-05T17:43:49.594Z,25.75
2023-02-05T17:53:59.219Z,18.42
2023-02-05T17:59:10.673Z,21.08
2023-02-05T18:04:16.082Z,29.50
2023-02-05T18:09:28.901Z,26.75
2023-02-05T18:14:34.384Z,23.17
2023-02-05T18:19:39.992Z,23.77
2023-02-05T18:24:46.106Z,25.77
2023-02-05T18:29:56.260Z,29.05
2023-02-05T18:35:05.619Z,19.77
2023-02-05T18:46:43.368Z,33.47
2023-02-05T18:51:46.926Z,30.98
2023-02-05T18:56:49.106Z,28.33
2023-02-05T19:01:51.765Z,24.27
2023-02-05T19:06:55.309Z,19.42
2023-02-05T19:11:57.625Z,32.85
2023-02-05T19:16:59.712Z,28.25
2023-02-05T19:22:03.438Z,24.77
2023-02-05T19:27:05.528Z,29.10
2023-02-05T19:32:08.420Z,32.45
2023-02-05T19:37:12.421Z,27.13
2023-02-05T19:42:14.634Z,34.22
2023-02-05T19:47:16.724Z,47.85
2023-02-05T19:52:20.485Z,26.25
2023-02-05T19:57:22.628Z,40.08
2023-02-05T20:02:25.530Z,43.35
2023-02-05T20:07:30.828Z,38.35
2023-02-05T20:12:32.921Z,27.48
2023-02-05T20:17:35.029Z,28.95
2023-02-05T20:22:38.555Z,24.52
2023-02-05T20:27:40.678Z,33.17
2023-02-05T20:32:45.607Z,25.90
2023-02-05T20:37:49.132Z,30.42
2023-02-05T20:42:51.270Z,34.75
2023-02-05T20:47:53.397Z,23.73
2023-02-05T20:52:56.961Z,24.88
2023-02-05T20:57:59.160Z,26.90
2023-02-05T21:03:01.379Z,39.60
2023-02-05T21:08:05.105Z,24.75
2023-02-05T21:13:07.262Z,32.28
2023-02-05T21:18:09.462Z,43.35
2023-02-05T21:23:12.966Z,32.95
2023-02-05T21:28:17.040Z,38.03
2023-02-05T21:33:22.275Z,44.63
2023-02-05T21:38:27.602Z,35.67
2023-02-05T21:43:31.256Z,33.10
2023-02-05T21:48:33.639Z,46.28
2023-02-05T21:53:37.737Z,26.00
2023-02-05T21:58:41.204Z,28.33
2023-02-05T22:03:48.221Z,39.95
2023-02-05T22:08:52.739Z,34.30
2023-02-05T22:13:56.292Z,32.33
2023-02-05T22:19:00.073Z,31.77
2023-02-05T22:24:05.373Z,22.40
2023-02-05T22:29:10.656Z,22.48
2023-02-05T22:34:13.291Z,23.13
2023-02-05T22:39:16.977Z,24.75
2023-02-05T22:44:19.065Z,29.00
2023-02-05T22:49:21.203Z,24.63
2023-02-05T22:54:24.917Z,29.85
2023-02-05T22:59:27.094Z,17.58
2023-02-05T23:04:29.198Z,20.33
2023-02-05T23:09:34.449Z,25.70
2023-02-05T23:14:36.759Z,19.95
2023-02-05T23:19:38.880Z,20.08
2023-02-05T23:24:42.476Z,24.48
2023-02-05T23:29:44.641Z,22.30
2023-02-05T23:34:46.745Z,17.80
2023-02-05T23:39:50.263Z,29.15
2023-02-05T23:44:52.333Z,34.40
2023-02-05T23:49:54.437Z,25.83
2023-02-05T23:54:57.954Z,16.60
